sensor_id;sensor_type;location;lat;lon;timestamp;P1;durP1;ratioP1;P2;durP2;ratioP2
16159;SDS011;8185;57.818;15.224;2022-08-07T00:01:46;10.83;;;2.10;;
16159;SDS011;8185;57.818;15.224;2022-08-07T00:04:13;9.33;;;1.97;;
16159;SDS011;8185;57.818;15.224;2022-08-07T00:06:41;8.07;;;2.13;;
16159;SDS011;8185;57.818;15.224;2022-08-07T00:09:08;8.80;;;2.10;;
16159;SDS011;8185;57.818;15.224;2022-08-07T00:11:37;6.83;;;1.80;;
16159;SDS011;8185;57.818;15.224;2022-08-07T00:14:04;8.93;;;2.20;;
16159;SDS011;8185;57.818;15.224;2022-08-07T00:16:31;7.10;;;2.20;;
16159;SDS011;8185;57.818;15.224;2022-08-07T00:18:58;10.90;;;2.03;;
16159;SDS011;8185;57.818;15.224;2022-08-07T00:21:26;6.77;;;1.90;;
16159;SDS011;8185;57.818;15.224;2022-08-07T00:23:53;9.60;;;1.87;;
16159;SDS011;8185;57.818;15.224;2022-08-07T00:26:20;6.10;;;1.67;;
16159;SDS011;8185;57.818;15.224;2022-08-07T00:28:49;6.80;;;1.90;;
16159;SDS011;8185;57.818;15.224;2022-08-07T00:31:16;8.47;;;1.77;;
16159;SDS011;8185;57.818;15.224;2022-08-07T00:33:43;5.77;;;2.33;;
16159;SDS011;8185;57.818;15.224;2022-08-07T00:36:10;9.00;;;1.97;;
16159;SDS011;8185;57.818;15.224;2022-08-07T00:38:38;6.83;;;1.70;;
16159;SDS011;8185;57.818;15.224;2022-08-07T00:41:05;4.50;;;1.23;;
16159;SDS011;8185;57.818;15.224;2022-08-07T00:43:33;6.60;;;1.83;;
16159;SDS011;8185;57.818;15.224;2022-08-07T00:46:01;10.03;;;2.47;;
16159;SDS011;8185;57.818;15.224;2022-08-07T00:48:29;11.23;;;2.93;;
16159;SDS011;8185;57.818;15.224;2022-08-07T00:50:56;6.47;;;1.73;;
16159;SDS011;8185;57.818;15.224;2022-08-07T00:53:24;9.20;;;2.27;;
16159;SDS011;8185;57.818;15.224;2022-08-07T00:55:51;6.13;;;1.93;;
16159;SDS011;8185;57.818;15.224;2022-08-07T00:58:19;4.77;;;1.60;;
16159;SDS011;8185;57.818;15.224;2022-08-07T01:00:47;6.27;;;1.67;;
16159;SDS011;8185;57.818;15.224;2022-08-07T01:03:16;8.70;;;2.00;;
16159;SDS011;8185;57.818;15.224;2022-08-07T01:05:44;9.73;;;2.00;;
16159;SDS011;8185;57.818;15.224;2022-08-07T01:08:12;6.50;;;1.73;;
16159;SDS011;8185;57.818;15.224;2022-08-07T01:10:40;8.17;;;3.23;;
16159;SDS011;8185;57.818;15.224;2022-08-07T01:13:08;11.53;;;2.13;;
16159;SDS011;8185;57.818;15.224;2022-08-07T01:15:36;5.87;;;2.10;;
16159;SDS011;8185;57.818;15.224;2022-08-07T01:18:03;8.50;;;2.57;;
16159;SDS011;8185;57.818;15.224;2022-08-07T01:20:35;10.67;;;2.50;;
16159;SDS011;8185;57.818;15.224;2022-08-07T01:23:13;12.33;;;2.77;;
16159;SDS011;8185;57.818;15.224;2022-08-07T01:25:41;7.90;;;1.80;;
16159;SDS011;8185;57.818;15.224;2022-08-07T01:28:09;9.90;;;3.17;;
16159;SDS011;8185;57.818;15.224;2022-08-07T01:30:36;11.50;;;2.43;;
16159;SDS011;8185;57.818;15.224;2022-08-07T01:33:05;12.07;;;2.80;;
16159;SDS011;8185;57.818;15.224;2022-08-07T01:35:32;9.80;;;2.53;;
16159;SDS011;8185;57.818;15.224;2022-08-07T01:38:00;10.53;;;1.73;;
16159;SDS011;8185;57.818;15.224;2022-08-07T01:40:29;9.13;;;2.90;;
16159;SDS011;8185;57.818;15.224;2022-08-07T01:42:56;7.90;;;2.30;;
16159;SDS011;8185;57.818;15.224;2022-08-07T01:45:24;13.27;;;2.40;;
16159;SDS011;8185;57.818;15.224;2022-08-07T01:47:51;7.30;;;2.33;;
16159;SDS011;8185;57.818;15.224;2022-08-07T01:50:19;8.10;;;2.87;;
16159;SDS011;8185;57.818;15.224;2022-08-07T01:52:47;8.23;;;2.63;;
16159;SDS011;8185;57.818;15.224;2022-08-07T01:55:17;12.13;;;2.40;;
16159;SDS011;8185;57.818;15.224;2022-08-07T01:57:49;9.00;;;2.97;;
16159;SDS011;8185;57.818;15.224;2022-08-07T02:00:21;9.17;;;2.53;;
16159;SDS011;8185;57.818;15.224;2022-08-07T02:02:52;9.90;;;2.83;;
16159;SDS011;8185;57.818;15.224;2022-08-07T02:05:24;8.80;;;2.87;;
16159;SDS011;8185;57.818;15.224;2022-08-07T02:07:56;6.33;;;2.20;;
16159;SDS011;8185;57.818;15.224;2022-08-07T02:10:26;3.93;;;1.50;;
16159;SDS011;8185;57.818;15.224;2022-08-07T02:12:57;7.67;;;2.50;;
16159;SDS011;8185;57.818;15.224;2022-08-07T02:15:27;6.57;;;2.40;;
16159;SDS011;8185;57.818;15.224;2022-08-07T02:17:57;13.83;;;2.80;;
16159;SDS011;8185;57.818;15.224;2022-08-07T02:20:27;11.07;;;2.40;;
16159;SDS011;8185;57.818;15.224;2022-08-07T02:22:58;9.83;;;2.73;;
16159;SDS011;8185;57.818;15.224;2022-08-07T02:25:28;7.60;;;2.40;;
16159;SDS011;8185;57.818;15.224;2022-08-07T02:27:59;6.77;;;2.23;;
16159;SDS011;8185;57.818;15.224;2022-08-07T02:30:28;9.30;;;2.50;;
16159;SDS011;8185;57.818;15.224;2022-08-07T02:32:57;6.33;;;2.40;;
16159;SDS011;8185;57.818;15.224;2022-08-07T02:35:26;10.40;;;2.07;;
16159;SDS011;8185;57.818;15.224;2022-08-07T02:37:54;7.80;;;2.63;;
16159;SDS011;8185;57.818;15.224;2022-08-07T02:40:23;6.57;;;2.73;;
16159;SDS011;8185;57.818;15.224;2022-08-07T02:42:51;9.87;;;2.50;;
16159;SDS011;8185;57.818;15.224;2022-08-07T02:45:22;9.33;;;2.60;;
16159;SDS011;8185;57.818;15.224;2022-08-07T02:47:52;9.53;;;3.10;;
16159;SDS011;8185;57.818;15.224;2022-08-07T02:50:19;12.13;;;3.00;;
16159;SDS011;8185;57.818;15.224;2022-08-07T02:52:47;7.60;;;2.30;;
16159;SDS011;8185;57.818;15.224;2022-08-07T02:55:20;11.30;;;3.00;;
16159;SDS011;8185;57.818;15.224;2022-08-07T02:57:50;10.60;;;3.33;;
16159;SDS011;8185;57.818;15.224;2022-08-07T03:00:19;5.93;;;2.10;;
16159;SDS011;8185;57.818;15.224;2022-08-07T03:02:51;5.73;;;2.30;;
16159;SDS011;8185;57.818;15.224;2022-08-07T03:05:19;9.17;;;2.80;;
16159;SDS011;8185;57.818;15.224;2022-08-07T03:07:46;8.67;;;2.50;;
16159;SDS011;8185;57.818;15.224;2022-08-07T03:10:14;8.40;;;2.70;;
16159;SDS011;8185;57.818;15.224;2022-08-07T03:12:42;9.30;;;2.67;;
16159;SDS011;8185;57.818;15.224;2022-08-07T03:15:11;8.40;;;2.73;;
16159;SDS011;8185;57.818;15.224;2022-08-07T03:17:40;10.10;;;3.07;;
16159;SDS011;8185;57.818;15.224;2022-08-07T03:20:08;8.70;;;3.23;;
16159;SDS011;8185;57.818;15.224;2022-08-07T03:22:37;10.17;;;2.50;;
16159;SDS011;8185;57.818;15.224;2022-08-07T03:25:07;10.27;;;2.50;;
16159;SDS011;8185;57.818;15.224;2022-08-07T03:27:35;14.03;;;3.53;;
16159;SDS011;8185;57.818;15.224;2022-08-07T03:30:03;8.50;;;2.53;;
16159;SDS011;8185;57.818;15.224;2022-08-07T03:32:32;8.13;;;2.67;;
16159;SDS011;8185;57.818;15.224;2022-08-07T03:35:05;10.53;;;3.10;;
16159;SDS011;8185;57.818;15.224;2022-08-07T03:37:37;8.60;;;3.87;;
16159;SDS011;8185;57.818;15.224;2022-08-07T03:40:06;6.67;;;2.90;;
16159;SDS011;8185;57.818;15.224;2022-08-07T03:42:35;7.77;;;2.80;;
16159;SDS011;8185;57.818;15.224;2022-08-07T03:45:03;7.10;;;2.80;;
16159;SDS011;8185;57.818;15.224;2022-08-07T03:47:32;11.77;;;4.13;;
16159;SDS011;8185;57.818;15.224;2022-08-07T03:49:59;9.63;;;2.47;;
16159;SDS011;8185;57.818;15.224;2022-08-07T03:52:30;10.77;;;3.87;;
16159;SDS011;8185;57.818;15.224;2022-08-07T03:54:58;8.40;;;2.83;;
16159;SDS011;8185;57.818;15.224;2022-08-07T03:57:26;10.00;;;2.90;;
16159;SDS011;8185;57.818;15.224;2022-08-07T03:59:56;14.67;;;3.77;;
16159;SDS011;8185;57.818;15.224;2022-08-07T04:02:24;8.03;;;2.87;;
16159;SDS011;8185;57.818;15.224;2022-08-07T04:04:51;8.20;;;3.00;;
16159;SDS011;8185;57.818;15.224;2022-08-07T04:07:20;14.93;;;4.43;;
16159;SDS011;8185;57.818;15.224;2022-08-07T04:09:48;12.37;;;2.83;;
16159;SDS011;8185;57.818;15.224;2022-08-07T04:12:16;6.63;;;2.70;;
16159;SDS011;8185;57.818;15.224;2022-08-07T04:14:43;6.33;;;3.00;;
16159;SDS011;8185;57.818;15.224;2022-08-07T04:17:11;9.90;;;3.03;;
16159;SDS011;8185;57.818;15.224;2022-08-07T04:19:39;12.43;;;2.40;;
16159;SDS011;8185;57.818;15.224;2022-08-07T04:22:06;9.67;;;2.97;;
16159;SDS011;8185;57.818;15.224;2022-08-07T04:24:35;13.63;;;3.60;;
16159;SDS011;8185;57.818;15.224;2022-08-07T04:27:04;6.97;;;2.80;;
16159;SDS011;8185;57.818;15.224;2022-08-07T04:29:31;8.30;;;2.97;;
16159;SDS011;8185;57.818;15.224;2022-08-07T04:31:58;7.17;;;3.17;;
16159;SDS011;8185;57.818;15.224;2022-08-07T04:34:26;10.40;;;3.13;;
16159;SDS011;8185;57.818;15.224;2022-08-07T04:36:55;7.33;;;2.90;;
16159;SDS011;8185;57.818;15.224;2022-08-07T04:39:22;5.13;;;2.60;;
16159;SDS011;8185;57.818;15.224;2022-08-07T04:41:51;7.77;;;2.50;;
16159;SDS011;8185;57.818;15.224;2022-08-07T04:44:19;5.70;;;2.30;;
16159;SDS011;8185;57.818;15.224;2022-08-07T04:46:50;7.13;;;2.70;;
16159;SDS011;8185;57.818;15.224;2022-08-07T04:49:26;9.87;;;2.77;;
16159;SDS011;8185;57.818;15.224;2022-08-07T04:52:04;8.93;;;2.67;;
16159;SDS011;8185;57.818;15.224;2022-08-07T04:54:42;5.87;;;2.87;;
16159;SDS011;8185;57.818;15.224;2022-08-07T04:57:19;7.00;;;2.17;;
16159;SDS011;8185;57.818;15.224;2022-08-07T05:00:06;8.60;;;2.77;;
16159;SDS011;8185;57.818;15.224;2022-08-07T05:02:39;7.97;;;3.47;;
16159;SDS011;8185;57.818;15.224;2022-08-07T05:05:16;6.57;;;2.33;;
16159;SDS011;8185;57.818;15.224;2022-08-07T05:07:51;8.53;;;2.50;;
16159;SDS011;8185;57.818;15.224;2022-08-07T05:10:23;12.30;;;2.80;;
16159;SDS011;8185;57.818;15.224;2022-08-07T05:13:01;5.93;;;2.53;;
16159;SDS011;8185;57.818;15.224;2022-08-07T05:15:33;9.67;;;2.77;;
16159;SDS011;8185;57.818;15.224;2022-08-07T05:18:04;5.73;;;2.20;;
16159;SDS011;8185;57.818;15.224;2022-08-07T05:20:38;9.73;;;2.40;;
16159;SDS011;8185;57.818;15.224;2022-08-07T05:23:08;5.33;;;2.30;;
16159;SDS011;8185;57.818;15.224;2022-08-07T05:25:39;8.53;;;2.50;;
16159;SDS011;8185;57.818;15.224;2022-08-07T05:28:11;7.13;;;2.13;;
16159;SDS011;8185;57.818;15.224;2022-08-07T05:30:40;6.67;;;2.57;;
16159;SDS011;8185;57.818;15.224;2022-08-07T05:33:08;11.00;;;3.13;;
16159;SDS011;8185;57.818;15.224;2022-08-07T05:35:38;6.63;;;2.43;;
16159;SDS011;8185;57.818;15.224;2022-08-07T05:38:06;8.47;;;2.47;;
16159;SDS011;8185;57.818;15.224;2022-08-07T05:40:35;11.27;;;2.23;;
16159;SDS011;8185;57.818;15.224;2022-08-07T05:43:03;6.73;;;2.47;;
16159;SDS011;8185;57.818;15.224;2022-08-07T05:45:32;9.93;;;2.67;;
16159;SDS011;8185;57.818;15.224;2022-08-07T05:47:59;4.70;;;2.00;;
16159;SDS011;8185;57.818;15.224;2022-08-07T05:50:29;6.70;;;2.43;;
16159;SDS011;8185;57.818;15.224;2022-08-07T05:52:58;6.87;;;2.60;;
16159;SDS011;8185;57.818;15.224;2022-08-07T05:55:26;6.77;;;1.80;;
16159;SDS011;8185;57.818;15.224;2022-08-07T05:57:54;3.63;;;2.13;;
16159;SDS011;8185;57.818;15.224;2022-08-07T06:00:22;6.27;;;2.33;;
16159;SDS011;8185;57.818;15.224;2022-08-07T06:02:51;4.47;;;1.80;;
16159;SDS011;8185;57.818;15.224;2022-08-07T06:05:22;7.20;;;2.17;;
16159;SDS011;8185;57.818;15.224;2022-08-07T06:07:53;6.03;;;2.67;;
16159;SDS011;8185;57.818;15.224;2022-08-07T06:10:21;8.43;;;2.37;;
16159;SDS011;8185;57.818;15.224;2022-08-07T06:12:48;8.53;;;2.33;;
16159;SDS011;8185;57.818;15.224;2022-08-07T06:15:16;4.43;;;2.20;;
16159;SDS011;8185;57.818;15.224;2022-08-07T06:17:45;5.47;;;2.00;;
16159;SDS011;8185;57.818;15.224;2022-08-07T06:20:14;4.70;;;1.60;;
16159;SDS011;8185;57.818;15.224;2022-08-07T06:22:42;3.47;;;1.50;;
16159;SDS011;8185;57.818;15.224;2022-08-07T06:25:12;8.23;;;1.90;;
16159;SDS011;8185;57.818;15.224;2022-08-07T06:27:39;4.60;;;1.47;;
16159;SDS011;8185;57.818;15.224;2022-08-07T06:30:07;4.80;;;1.77;;
16159;SDS011;8185;57.818;15.224;2022-08-07T06:32:35;6.77;;;1.97;;
16159;SDS011;8185;57.818;15.224;2022-08-07T06:35:02;3.60;;;1.63;;
16159;SDS011;8185;57.818;15.224;2022-08-07T06:37:32;7.87;;;1.93;;
16159;SDS011;8185;57.818;15.224;2022-08-07T06:39:59;6.13;;;1.87;;
16159;SDS011;8185;57.818;15.224;2022-08-07T06:42:27;4.90;;;1.50;;
16159;SDS011;8185;57.818;15.224;2022-08-07T06:45:01;5.80;;;1.70;;
16159;SDS011;8185;57.818;15.224;2022-08-07T06:47:30;4.07;;;1.77;;
16159;SDS011;8185;57.818;15.224;2022-08-07T06:49:57;5.43;;;2.10;;
16159;SDS011;8185;57.818;15.224;2022-08-07T06:52:26;4.93;;;2.07;;
16159;SDS011;8185;57.818;15.224;2022-08-07T06:54:57;5.73;;;1.90;;
16159;SDS011;8185;57.818;15.224;2022-08-07T06:57:27;3.83;;;1.87;;
16159;SDS011;8185;57.818;15.224;2022-08-07T06:59:57;7.67;;;2.30;;
16159;SDS011;8185;57.818;15.224;2022-08-07T07:02:25;3.90;;;1.77;;
16159;SDS011;8185;57.818;15.224;2022-08-07T07:04:54;5.40;;;1.70;;
16159;SDS011;8185;57.818;15.224;2022-08-07T07:07:21;4.70;;;1.80;;
16159;SDS011;8185;57.818;15.224;2022-08-07T07:09:49;4.83;;;1.87;;
16159;SDS011;8185;57.818;15.224;2022-08-07T07:12:21;2.73;;;1.40;;
16159;SDS011;8185;57.818;15.224;2022-08-07T07:14:57;3.87;;;1.80;;
16159;SDS011;8185;57.818;15.224;2022-08-07T07:17:32;2.00;;;1.33;;
16159;SDS011;8185;57.818;15.224;2022-08-07T07:20:05;3.43;;;1.47;;
16159;SDS011;8185;57.818;15.224;2022-08-07T07:22:36;6.17;;;1.50;;
16159;SDS011;8185;57.818;15.224;2022-08-07T07:25:04;4.27;;;1.80;;
16159;SDS011;8185;57.818;15.224;2022-08-07T07:27:35;5.57;;;1.50;;
16159;SDS011;8185;57.818;15.224;2022-08-07T07:30:08;6.53;;;1.70;;
16159;SDS011;8185;57.818;15.224;2022-08-07T07:32:38;2.93;;;1.70;;
16159;SDS011;8185;57.818;15.224;2022-08-07T07:35:07;6.07;;;1.70;;
16159;SDS011;8185;57.818;15.224;2022-08-07T07:37:37;4.37;;;2.03;;
16159;SDS011;8185;57.818;15.224;2022-08-07T07:40:09;2.37;;;1.27;;
16159;SDS011;8185;57.818;15.224;2022-08-07T07:42:43;5.97;;;1.50;;
16159;SDS011;8185;57.818;15.224;2022-08-07T07:45:12;4.40;;;1.43;;
16159;SDS011;8185;57.818;15.224;2022-08-07T07:47:42;7.57;;;1.43;;
16159;SDS011;8185;57.818;15.224;2022-08-07T07:50:12;6.43;;;1.87;;
16159;SDS011;8185;57.818;15.224;2022-08-07T07:52:43;3.30;;;1.30;;
16159;SDS011;8185;57.818;15.224;2022-08-07T07:55:12;4.07;;;1.80;;
16159;SDS011;8185;57.818;15.224;2022-08-07T07:57:44;2.70;;;1.30;;
16159;SDS011;8185;57.818;15.224;2022-08-07T08:00:14;5.90;;;2.23;;
16159;SDS011;8185;57.818;15.224;2022-08-07T08:02:43;5.07;;;1.57;;
16159;SDS011;8185;57.818;15.224;2022-08-07T08:05:13;3.03;;;1.40;;
16159;SDS011;8185;57.818;15.224;2022-08-07T08:07:43;4.37;;;1.93;;
16159;SDS011;8185;57.818;15.224;2022-08-07T08:10:11;2.00;;;1.53;;
16159;SDS011;8185;57.818;15.224;2022-08-07T08:12:40;5.97;;;1.60;;
16159;SDS011;8185;57.818;15.224;2022-08-07T08:15:11;3.63;;;1.60;;
16159;SDS011;8185;57.818;15.224;2022-08-07T08:17:38;3.30;;;1.50;;
16159;SDS011;8185;57.818;15.224;2022-08-07T08:20:09;4.23;;;1.33;;
16159;SDS011;8185;57.818;15.224;2022-08-07T08:22:40;5.90;;;1.87;;
16159;SDS011;8185;57.818;15.224;2022-08-07T08:25:27;5.00;;;1.73;;
16159;SDS011;8185;57.818;15.224;2022-08-07T08:28:16;3.57;;;1.80;;
16159;SDS011;8185;57.818;15.224;2022-08-07T08:30:49;3.53;;;1.33;;
16159;SDS011;8185;57.818;15.224;2022-08-07T08:33:23;2.87;;;1.50;;
16159;SDS011;8185;57.818;15.224;2022-08-07T08:35:53;3.83;;;1.10;;
16159;SDS011;8185;57.818;15.224;2022-08-07T08:38:23;3.53;;;1.37;;
16159;SDS011;8185;57.818;15.224;2022-08-07T08:40:54;2.40;;;1.40;;
16159;SDS011;8185;57.818;15.224;2022-08-07T08:43:30;4.53;;;1.30;;
16159;SDS011;8185;57.818;15.224;2022-08-07T08:46:06;2.57;;;1.10;;
16159;SDS011;8185;57.818;15.224;2022-08-07T08:48:36;4.30;;;1.60;;
16159;SDS011;8185;57.818;15.224;2022-08-07T08:51:09;2.03;;;1.17;;
16159;SDS011;8185;57.818;15.224;2022-08-07T08:53:43;2.07;;;1.40;;
16159;SDS011;8185;57.818;15.224;2022-08-07T08:56:16;2.20;;;1.17;;
16159;SDS011;8185;57.818;15.224;2022-08-07T08:58:51;3.57;;;1.30;;
16159;SDS011;8185;57.818;15.224;2022-08-07T09:01:25;1.67;;;1.30;;
16159;SDS011;8185;57.818;15.224;2022-08-07T09:03:58;3.80;;;1.23;;
16159;SDS011;8185;57.818;15.224;2022-08-07T09:06:38;2.40;;;1.10;;
16159;SDS011;8185;57.818;15.224;2022-08-07T09:09:17;4.17;;;1.03;;
16159;SDS011;8185;57.818;15.224;2022-08-07T09:11:57;3.87;;;2.30;;
16159;SDS011;8185;57.818;15.224;2022-08-07T09:14:35;1.93;;;1.20;;
16159;SDS011;8185;57.818;15.224;2022-08-07T09:17:12;1.63;;;1.20;;
16159;SDS011;8185;57.818;15.224;2022-08-07T09:19:51;2.83;;;0.80;;
16159;SDS011;8185;57.818;15.224;2022-08-07T09:22:33;2.47;;;1.40;;
16159;SDS011;8185;57.818;15.224;2022-08-07T09:25:15;3.13;;;1.40;;
16159;SDS011;8185;57.818;15.224;2022-08-07T09:27:51;3.23;;;1.10;;
16159;SDS011;8185;57.818;15.224;2022-08-07T09:30:25;1.80;;;0.77;;
16159;SDS011;8185;57.818;15.224;2022-08-07T09:33:07;5.37;;;1.43;;
16159;SDS011;8185;57.818;15.224;2022-08-07T09:35:44;2.33;;;1.20;;
16159;SDS011;8185;57.818;15.224;2022-08-07T09:38:19;2.03;;;0.90;;
16159;SDS011;8185;57.818;15.224;2022-08-07T09:40:59;4.73;;;1.00;;
16159;SDS011;8185;57.818;15.224;2022-08-07T09:43:48;3.00;;;1.20;;
16159;SDS011;8185;57.818;15.224;2022-08-07T09:46:26;3.40;;;1.00;;
16159;SDS011;8185;57.818;15.224;2022-08-07T09:49:06;1.33;;;0.87;;
16159;SDS011;8185;57.818;15.224;2022-08-07T09:51:52;2.10;;;0.87;;
16159;SDS011;8185;57.818;15.224;2022-08-07T09:54:28;3.00;;;0.87;;
16159;SDS011;8185;57.818;15.224;2022-08-07T09:57:07;3.43;;;1.13;;
16159;SDS011;8185;57.818;15.224;2022-08-07T10:00:01;5.47;;;1.73;;
16159;SDS011;8185;57.818;15.224;2022-08-07T10:02:39;3.60;;;1.00;;
16159;SDS011;8185;57.818;15.224;2022-08-07T10:05:28;3.13;;;1.50;;
16159;SDS011;8185;57.818;15.224;2022-08-07T10:08:15;5.07;;;1.43;;
16159;SDS011;8185;57.818;15.224;2022-08-07T10:11:02;1.27;;;0.90;;
16159;SDS011;8185;57.818;15.224;2022-08-07T10:13:48;3.07;;;1.00;;
16159;SDS011;8185;57.818;15.224;2022-08-07T10:16:37;3.67;;;1.17;;
16159;SDS011;8185;57.818;15.224;2022-08-07T10:19:18;4.67;;;1.20;;
16159;SDS011;8185;57.818;15.224;2022-08-07T10:22:06;2.30;;;1.20;;
16159;SDS011;8185;57.818;15.224;2022-08-07T10:25:02;2.27;;;1.03;;
16159;SDS011;8185;57.818;15.224;2022-08-07T10:27:51;4.33;;;1.30;;
16159;SDS011;8185;57.818;15.224;2022-08-07T10:30:32;1.93;;;0.93;;
16159;SDS011;8185;57.818;15.224;2022-08-07T10:33:23;1.40;;;0.70;;
16159;SDS011;8185;57.818;15.224;2022-08-07T10:36:14;1.57;;;0.77;;
16159;SDS011;8185;57.818;15.224;2022-08-07T10:38:53;2.97;;;1.50;;
16159;SDS011;8185;57.818;15.224;2022-08-07T10:41:27;4.50;;;1.10;;
16159;SDS011;8185;57.818;15.224;2022-08-07T10:44:03;2.00;;;0.87;;
16159;SDS011;8185;57.818;15.224;2022-08-07T10:46:38;3.20;;;1.07;;
16159;SDS011;8185;57.818;15.224;2022-08-07T10:49:12;3.63;;;1.47;;
16159;SDS011;8185;57.818;15.224;2022-08-07T10:51:47;1.57;;;1.00;;
16159;SDS011;8185;57.818;15.224;2022-08-07T10:54:28;1.30;;;1.13;;
16159;SDS011;8185;57.818;15.224;2022-08-07T10:57:07;5.93;;;1.40;;
16159;SDS011;8185;57.818;15.224;2022-08-07T10:59:45;3.67;;;1.50;;
16159;SDS011;8185;57.818;15.224;2022-08-07T11:02:27;3.07;;;1.50;;
16159;SDS011;8185;57.818;15.224;2022-08-07T11:05:04;4.93;;;1.50;;
16159;SDS011;8185;57.818;15.224;2022-08-07T11:07:40;2.83;;;1.50;;
16159;SDS011;8185;57.818;15.224;2022-08-07T11:10:18;2.73;;;1.60;;
16159;SDS011;8185;57.818;15.224;2022-08-07T11:12:53;8.47;;;1.90;;
16159;SDS011;8185;57.818;15.224;2022-08-07T11:15:25;4.87;;;1.57;;
16159;SDS011;8185;57.818;15.224;2022-08-07T11:17:58;5.10;;;1.73;;
16159;SDS011;8185;57.818;15.224;2022-08-07T11:20:32;3.03;;;1.57;;
16159;SDS011;8185;57.818;15.224;2022-08-07T11:23:09;3.20;;;1.53;;
16159;SDS011;8185;57.818;15.224;2022-08-07T11:25:47;5.20;;;1.70;;
16159;SDS011;8185;57.818;15.224;2022-08-07T11:28:22;4.50;;;1.63;;
16159;SDS011;8185;57.818;15.224;2022-08-07T11:30:53;1.67;;;1.53;;
16159;SDS011;8185;57.818;15.224;2022-08-07T11:33:31;3.57;;;1.60;;
16159;SDS011;8185;57.818;15.224;2022-08-07T11:36:08;2.10;;;1.47;;
16159;SDS011;8185;57.818;15.224;2022-08-07T11:38:43;1.80;;;1.20;;
16159;SDS011;8185;57.818;15.224;2022-08-07T11:41:22;6.17;;;1.90;;
16159;SDS011;8185;57.818;15.224;2022-08-07T11:44:00;2.63;;;1.20;;
16159;SDS011;8185;57.818;15.224;2022-08-07T11:46:45;3.27;;;1.30;;
16159;SDS011;8185;57.818;15.224;2022-08-07T11:49:26;4.43;;;1.20;;
16159;SDS011;8185;57.818;15.224;2022-08-07T11:52:25;3.73;;;1.67;;
16159;SDS011;8185;57.818;15.224;2022-08-07T11:55:03;4.87;;;1.63;;
16159;SDS011;8185;57.818;15.224;2022-08-07T11:57:42;5.83;;;1.30;;
16159;SDS011;8185;57.818;15.224;2022-08-07T12:00:15;2.80;;;1.60;;
16159;SDS011;8185;57.818;15.224;2022-08-07T12:02:53;3.87;;;1.73;;
16159;SDS011;8185;57.818;15.224;2022-08-07T12:05:55;2.47;;;1.63;;
16159;SDS011;8185;57.818;15.224;2022-08-07T12:08:36;2.50;;;1.30;;
16159;SDS011;8185;57.818;15.224;2022-08-07T12:11:12;2.27;;;1.50;;
16159;SDS011;8185;57.818;15.224;2022-08-07T12:13:45;4.23;;;1.70;;
16159;SDS011;8185;57.818;15.224;2022-08-07T12:16:20;2.83;;;1.40;;
16159;SDS011;8185;57.818;15.224;2022-08-07T12:18:54;3.17;;;1.67;;
16159;SDS011;8185;57.818;15.224;2022-08-07T12:21:34;3.67;;;1.90;;
16159;SDS011;8185;57.818;15.224;2022-08-07T12:24:09;4.00;;;1.27;;
16159;SDS011;8185;57.818;15.224;2022-08-07T12:26:44;2.43;;;1.20;;
16159;SDS011;8185;57.818;15.224;2022-08-07T12:29:18;2.03;;;1.40;;
16159;SDS011;8185;57.818;15.224;2022-08-07T12:31:50;2.07;;;1.20;;
16159;SDS011;8185;57.818;15.224;2022-08-07T12:34:28;3.07;;;1.50;;
16159;SDS011;8185;57.818;15.224;2022-08-07T12:36:59;4.13;;;1.60;;
16159;SDS011;8185;57.818;15.224;2022-08-07T12:39:27;3.70;;;1.57;;
16159;SDS011;8185;57.818;15.224;2022-08-07T12:41:57;3.00;;;1.50;;
16159;SDS011;8185;57.818;15.224;2022-08-07T12:44:27;2.73;;;1.40;;
16159;SDS011;8185;57.818;15.224;2022-08-07T12:46:59;6.13;;;1.50;;
16159;SDS011;8185;57.818;15.224;2022-08-07T12:49:40;2.60;;;1.33;;
16159;SDS011;8185;57.818;15.224;2022-08-07T12:52:14;3.17;;;1.80;;
16159;SDS011;8185;57.818;15.224;2022-08-07T12:54:49;2.90;;;1.40;;
16159;SDS011;8185;57.818;15.224;2022-08-07T12:57:20;1.70;;;1.03;;
16159;SDS011;8185;57.818;15.224;2022-08-07T12:59:54;0.80;;;0.80;;
16159;SDS011;8185;57.818;15.224;2022-08-07T13:02:28;3.53;;;0.97;;
16159;SDS011;8185;57.818;15.224;2022-08-07T13:05:09;3.17;;;1.00;;
16159;SDS011;8185;57.818;15.224;2022-08-07T13:07:49;2.80;;;1.23;;
16159;SDS011;8185;57.818;15.224;2022-08-07T13:10:37;1.10;;;0.97;;
16159;SDS011;8185;57.818;15.224;2022-08-07T13:13:28;2.13;;;1.00;;
16159;SDS011;8185;57.818;15.224;2022-08-07T13:16:13;3.27;;;1.33;;
16159;SDS011;8185;57.818;15.224;2022-08-07T13:18:52;1.20;;;1.03;;
16159;SDS011;8185;57.818;15.224;2022-08-07T13:21:28;1.50;;;1.40;;
16159;SDS011;8185;57.818;15.224;2022-08-07T13:23:59;2.27;;;1.47;;
16159;SDS011;8185;57.818;15.224;2022-08-07T13:26:38;1.87;;;1.50;;
16159;SDS011;8185;57.818;15.224;2022-08-07T13:29:10;3.87;;;1.80;;
16159;SDS011;8185;57.818;15.224;2022-08-07T13:31:44;2.53;;;1.60;;
16159;SDS011;8185;57.818;15.224;2022-08-07T13:34:20;3.13;;;1.80;;
16159;SDS011;8185;57.818;15.224;2022-08-07T13:36:56;1.80;;;1.43;;
16159;SDS011;8185;57.818;15.224;2022-08-07T13:39:34;3.30;;;2.10;;
16159;SDS011;8185;57.818;15.224;2022-08-07T13:42:09;3.30;;;1.67;;
16159;SDS011;8185;57.818;15.224;2022-08-07T13:44:38;2.37;;;1.90;;
16159;SDS011;8185;57.818;15.224;2022-08-07T13:47:09;2.70;;;2.10;;
16159;SDS011;8185;57.818;15.224;2022-08-07T13:49:41;3.77;;;2.00;;
16159;SDS011;8185;57.818;15.224;2022-08-07T13:52:10;3.87;;;1.97;;
16159;SDS011;8185;57.818;15.224;2022-08-07T13:54:39;3.30;;;2.33;;
16159;SDS011;8185;57.818;15.224;2022-08-07T13:57:08;2.93;;;2.27;;
16159;SDS011;8185;57.818;15.224;2022-08-07T13:59:38;4.07;;;2.70;;
16159;SDS011;8185;57.818;15.224;2022-08-07T14:02:11;3.07;;;2.10;;
16159;SDS011;8185;57.818;15.224;2022-08-07T14:04:45;3.77;;;2.43;;
16159;SDS011;8185;57.818;15.224;2022-08-07T14:07:14;4.33;;;2.17;;
16159;SDS011;8185;57.818;15.224;2022-08-07T14:09:43;2.50;;;1.97;;
16159;SDS011;8185;57.818;15.224;2022-08-07T14:12:12;2.20;;;2.00;;
16159;SDS011;8185;57.818;15.224;2022-08-07T14:14:51;3.37;;;1.77;;
16159;SDS011;8185;57.818;15.224;2022-08-07T14:17:23;3.23;;;1.83;;
16159;SDS011;8185;57.818;15.224;2022-08-07T14:19:52;2.77;;;1.80;;
16159;SDS011;8185;57.818;15.224;2022-08-07T14:22:24;2.90;;;2.00;;
16159;SDS011;8185;57.818;15.224;2022-08-07T14:24:56;2.73;;;1.83;;
16159;SDS011;8185;57.818;15.224;2022-08-07T14:27:28;4.97;;;2.07;;
16159;SDS011;8185;57.818;15.224;2022-08-07T14:30:03;2.43;;;1.77;;
16159;SDS011;8185;57.818;15.224;2022-08-07T14:32:41;2.43;;;1.97;;
16159;SDS011;8185;57.818;15.224;2022-08-07T14:35:14;2.27;;;1.70;;
16159;SDS011;8185;57.818;15.224;2022-08-07T14:37:51;2.00;;;1.90;;
16159;SDS011;8185;57.818;15.224;2022-08-07T14:40:19;2.00;;;1.87;;
16159;SDS011;8185;57.818;15.224;2022-08-07T14:42:53;2.57;;;2.20;;
16159;SDS011;8185;57.818;15.224;2022-08-07T14:45:23;3.30;;;2.40;;
16159;SDS011;8185;57.818;15.224;2022-08-07T14:47:54;3.27;;;2.87;;
16159;SDS011;8185;57.818;15.224;2022-08-07T14:50:24;2.77;;;2.50;;
16159;SDS011;8185;57.818;15.224;2022-08-07T14:52:54;3.40;;;3.00;;
16159;SDS011;8185;57.818;15.224;2022-08-07T14:55:26;3.50;;;3.10;;
16159;SDS011;8185;57.818;15.224;2022-08-07T14:57:57;4.77;;;3.40;;
16159;SDS011;8185;57.818;15.224;2022-08-07T15:00:27;4.03;;;3.50;;
16159;SDS011;8185;57.818;15.224;2022-08-07T15:02:58;3.60;;;2.97;;
16159;SDS011;8185;57.818;15.224;2022-08-07T15:05:29;5.23;;;3.50;;
16159;SDS011;8185;57.818;15.224;2022-08-07T15:07:57;3.83;;;3.40;;
16159;SDS011;8185;57.818;15.224;2022-08-07T15:10:25;3.90;;;3.50;;
16159;SDS011;8185;57.818;15.224;2022-08-07T15:12:53;4.87;;;3.20;;
16159;SDS011;8185;57.818;15.224;2022-08-07T15:15:29;4.87;;;3.17;;
16159;SDS011;8185;57.818;15.224;2022-08-07T15:18:06;3.83;;;3.23;;